Time;durP1;ratioP1;P1;durP2;ratioP2;P2;SDS_P1;SDS_P2;PMS_P1;PMS_P2;Temp;Humidity;BMP_temperature;BMP_pressure;BME280_temperature;BME280_humidity;BME280_pressure;Samples;Min_cycle;Max_cycle;Signal;HPM_P1;HPM_P2
2023/03/04 00:01:07;;;;;;;9.60;8.70;;;16.40;55.80;17.20;101699.00;;;;5029356;28;20179;-44
2023/03/04 00:03:33;;;;;;;10.33;9.27;;;16.30;55.70;17.10;101696.00;;;;5029430;28;20183;-45
2023/03/04 00:05:58;;;;;;;9.80;8.90;;;16.40;55.90;17.10;101687.00;;;;5029284;28;20199;-45
2023/03/04 00:08:24;;;;;;;9.47;8.57;;;16.30;55.70;17.10;101693.00;;;;5028299;28;20677;-44
2023/03/04 00:10:50;;;;;;;9.80;8.90;;;16.30;55.70;17.10;101691.00;;;;5029302;28;20179;-44
2023/03/04 00:13:17;;;;;;;9.80;8.90;;;16.30;55.80;17.10;101698.00;;;;5028248;28;20178;-44
2023/03/04 00:15:43;;;;;;;9.77;8.87;;;16.30;55.70;17.00;101690.00;;;;5029395;28;20192;-45
2023/03/04 00:18:08;;;;;;;10.00;9.10;;;16.20;55.70;17.00;101700.00;;;;5029422;28;20699;-44
2023/03/04 00:20:34;;;;;;;9.70;8.80;;;16.30;55.80;17.00;101694.00;;;;5028892;28;20182;-45
2023/03/04 00:23:00;;;;;;;9.40;8.50;;;16.30;55.80;17.00;101695.00;;;;5029023;28;20191;-45
2023/03/04 00:25:25;;;;;;;9.53;8.73;;;16.20;55.70;17.00;101688.00;;;;5029875;28;20226;-45
2023/03/04 00:27:51;;;;;;;9.67;8.77;;;16.20;55.80;17.00;101689.00;;;;5029616;28;20685;-45
2023/03/04 00:30:17;;;;;;;10.10;9.20;;;16.20;55.80;17.00;101702.00;;;;5029596;28;20175;-45
2023/03/04 00:32:42;;;;;;;9.73;8.83;;;16.20;55.70;17.00;101692.00;;;;5028242;28;20179;-45
2023/03/04 00:35:08;;;;;;;9.43;8.63;;;16.10;55.60;16.90;101686.00;;;;5028248;28;20170;-44
2023/03/04 00:37:34;;;;;;;9.60;8.70;;;16.10;55.60;16.90;101687.00;;;;5029267;28;20629;-44
2023/03/04 00:40:00;;;;;;;9.40;8.50;;;16.10;55.70;16.90;101682.00;;;;5032643;28;20550;-45
2023/03/04 00:42:25;;;;;;;10.37;9.47;;;16.10;55.70;16.90;101692.00;;;;5032685;28;20190;-44
2023/03/04 00:44:51;;;;;;;9.77;8.87;;;16.10;55.70;16.90;101682.00;;;;5032171;28;20181;-45
2023/03/04 00:47:17;;;;;;;9.90;9.00;;;16.10;55.70;16.90;101678.00;;;;5028463;28;20214;-45
2023/03/04 00:49:43;;;;;;;9.53;8.73;;;16.10;55.70;16.80;101671.00;;;;5037968;28;20228;-45
2023/03/04 00:52:09;;;;;;;9.80;8.90;;;16.10;55.60;16.80;101670.00;;;;5029753;28;20175;-45
2023/03/04 00:54:35;;;;;;;9.17;8.27;;;16.10;55.70;16.80;101664.00;;;;5028390;28;20206;-45
2023/03/04 00:57:00;;;;;;;9.33;8.53;;;16.00;55.50;16.80;101612.00;;;;5028293;28;20233;-44
2023/03/04 00:59:26;;;;;;;9.77;8.87;;;16.00;55.60;16.80;101669.00;;;;5027310;28;20173;-45
2023/03/04 01:01:52;;;;;;;9.53;8.70;;;16.00;55.60;16.80;101660.00;;;;5020822;28;20637;-45
2023/03/04 01:04:17;;;;;;;9.63;8.73;;;16.00;55.60;16.80;101665.00;;;;5028264;28;20179;-45
2023/03/04 01:06:43;;;;;;;9.67;8.80;;;16.00;55.60;16.80;101635.00;;;;5028284;28;20203;-44
2023/03/04 01:09:09;;;;;;;9.30;8.50;;;16.00;55.60;16.80;101672.00;;;;5028467;28;20182;-45
2023/03/04 01:11:34;;;;;;;9.30;8.50;;;15.90;55.50;16.70;101657.00;;;;5027720;28;20174;-45
2023/03/04 01:14:00;;;;;;;9.83;9.00;;;16.00;55.60;16.70;101669.00;;;;5026758;28;20504;-45
2023/03/04 01:16:26;;;;;;;9.23;8.43;;;15.90;55.50;16.70;101659.00;;;;5027871;28;20201;-45
2023/03/04 01:18:52;;;;;;;8.93;8.13;;;15.90;55.50;16.70;101665.00;;;;5028588;28;20270;-45
2023/03/04 01:21:18;;;;;;;9.93;9.03;;;15.90;55.50;16.70;101659.00;;;;5031834;28;20183;-45
2023/03/04 01:23:43;;;;;;;10.00;9.10;;;15.90;55.50;16.70;101659.00;;;;5031634;28;20774;-45
2023/03/04 01:26:09;;;;;;;9.60;8.80;;;15.90;55.50;16.70;101580.00;;;;5031575;28;20206;-45
2023/03/04 01:28:35;;;;;;;9.80;8.90;;;15.90;55.50;16.70;101651.00;;;;5031357;28;20203;-44
2023/03/04 01:31:02;;;;;;;10.27;9.27;;;15.90;55.50;16.70;101659.00;;;;5031528;28;20186;-45
2023/03/04 01:33:28;;;;;;;9.83;8.90;;;15.90;55.50;16.70;101659.00;;;;5031860;28;20171;-45
2023/03/04 01:35:54;;;;;;;9.77;8.87;;;15.90;55.50;16.70;101654.00;;;;5030213;28;20206;-44
2023/03/04 01:38:20;;;;;;;9.77;8.93;;;15.90;55.50;16.70;101652.00;;;;5031546;28;20570;-44
2023/03/04 01:40:45;;;;;;;9.83;8.93;;;15.80;55.40;16.70;101641.00;;;;5031369;28;20170;-45
2023/03/04 01:43:19;;;;;;;10.10;9.20;;;15.90;55.50;16.70;101635.00;;;;5030449;28;20175;-45
2023/03/04 01:45:47;;;;;;;9.57;8.70;;;15.80;55.40;16.70;101634.00;;;;5030188;28;20198;-45
2023/03/04 01:48:12;;;;;;;9.50;8.63;;;15.80;55.40;16.70;101639.00;;;;5030013;28;20293;-44
2023/03/04 01:50:38;;;;;;;10.13;9.23;;;15.80;55.40;16.60;101639.00;;;;5029654;28;20175;-44
2023/03/04 01:53:04;;;;;;;10.30;9.40;;;15.80;55.40;16.70;101641.00;;;;5031323;28;20179;-45
2023/03/04 01:55:30;;;;;;;9.90;9.00;;;15.80;55.40;16.60;101638.00;;;;5029732;28;20206;-44
2023/03/04 01:57:56;;;;;;;9.40;8.60;;;15.80;55.40;16.60;101631.00;;;;5029842;28;20223;-45
2023/03/04 02:00:34;;;;;;;9.70;8.80;;;15.80;55.40;16.60;101631.00;;;;5029637;28;20553;-45
2023/03/04 02:03:06;;;;;;;10.37;9.47;;;15.80;55.40;16.60;101626.00;;;;5030776;28;20536;-45
2023/03/04 02:05:32;;;;;;;10.07;9.17;;;15.80;55.50;16.60;101622.00;;;;5029857;28;20270;-45
2023/03/04 02:07:58;;;;;;;10.33;9.43;;;15.80;55.50;16.60;101632.00;;;;5029850;28;20282;-45
2023/03/04 02:10:24;;;;;;;10.10;9.20;;;15.80;55.50;16.60;101622.00;;;;5029854;28;20179;-45
2023/03/04 02:12:50;;;;;;;9.83;8.93;;;15.70;55.30;16.60;101616.00;;;;5029613;28;20186;-44
2023/03/04 02:15:16;;;;;;;9.43;8.60;;;15.70;55.30;16.60;101620.00;;;;5032558;28;20198;-44
2023/03/04 02:17:42;;;;;;;10.47;9.47;;;15.70;55.40;16.60;101614.00;;;;5028635;28;20564;-45
2023/03/04 02:20:24;;;;;;;9.90;9.00;;;15.70;55.40;16.50;101624.00;;;;5035720;28;20182;-45
2023/03/04 02:23:17;;;;;;;9.60;8.77;;;15.70;55.40;16.50;101622.00;;;;5033631;28;20206;-45
2023/03/04 02:25:48;;;;;;;10.07;9.17;;;15.70;55.40;16.50;101608.00;;;;5029068;28;20206;-44
2023/03/04 02:28:14;;;;;;;9.70;8.87;;;15.70;55.50;16.50;101621.00;;;;5012826;28;20238;-45
2023/03/04 02:30:39;;;;;;;9.70;8.80;;;15.60;55.50;16.50;101615.00;;;;5029231;28;20254;-45
2023/03/04 02:33:05;;;;;;;9.57;8.67;;;15.70;55.60;16.50;101606.00;;;;5029306;28;20240;-45
2023/03/04 02:35:31;;;;;;;9.97;8.97;;;15.60;55.50;16.50;101597.00;;;;5028974;28;20801;-45
2023/03/04 02:37:57;;;;;;;9.27;8.47;;;15.60;55.50;16.50;101606.00;;;;5029167;28;20179;-45
2023/03/04 02:40:27;;;;;;;9.80;8.90;;;15.60;55.50;16.50;101598.00;;;;5032033;28;20183;-45
2023/03/04 02:42:53;;;;;;;10.00;9.10;;;15.60;55.50;16.50;101539.00;;;;5023968;28;20213;-45
2023/03/04 02:45:40;;;;;;;10.67;9.67;;;15.60;55.50;16.40;101608.00;;;;5028887;28;20227;-45
2023/03/04 02:48:07;;;;;;;9.50;8.70;;;15.60;55.50;16.40;101601.00;;;;5030234;28;20260;-44
2023/03/04 02:50:37;;;;;;;9.63;8.73;;;15.60;55.50;16.40;101601.00;;;;5029984;28;20653;-45
2023/03/04 02:53:03;;;;;;;9.83;8.93;;;15.60;55.50;16.40;101600.00;;;;5029127;28;20229;-44
2023/03/04 02:55:28;;;;;;;9.83;8.93;;;15.60;55.60;16.40;101588.00;;;;5028657;28;20206;-45
2023/03/04 02:57:54;;;;;;;9.93;9.03;;;15.50;55.50;16.40;101590.00;;;;5030079;28;20178;-45
2023/03/04 03:00:20;;;;;;;9.93;9.03;;;15.50;55.50;16.40;101594.00;;;;5029985;28;20179;-44
2023/03/04 03:02:46;;;;;;;10.50;9.60;;;15.50;55.50;16.40;101596.00;;;;5029920;28;20183;-48
2023/03/04 03:05:11;;;;;;;9.80;8.90;;;15.50;55.50;16.40;101588.00;;;;5029880;28;20217;-44
2023/03/04 03:07:37;;;;;;;10.30;9.40;;;15.50;55.50;16.30;101583.00;;;;5028422;28;20349;-44
2023/03/04 03:10:04;;;;;;;10.80;9.80;;;15.50;55.50;16.30;101578.00;;;;5029872;28;20653;-44
2023/03/04 03:12:29;;;;;;;9.93;9.03;;;15.50;55.60;16.30;101581.00;;;;5029985;28;20712;-45
2023/03/04 03:14:55;;;;;;;9.40;8.60;;;15.40;55.50;16.30;101579.00;;;;5029799;28;20183;-45
2023/03/04 03:17:21;;;;;;;9.50;8.70;;;15.40;55.50;16.30;101579.00;;;;5029648;28;20179;-45
2023/03/04 03:19:46;;;;;;;9.93;9.03;;;15.40;55.70;16.30;101577.00;;;;5029702;28;20304;-45
2023/03/04 03:22:12;;;;;;;9.97;9.07;;;15.30;55.70;16.30;101577.00;;;;5029313;28;20556;-45
2023/03/04 03:24:38;;;;;;;10.20;9.30;;;15.30;55.70;16.30;101586.00;;;;5029886;28;20736;-45
2023/03/04 03:27:03;;;;;;;9.67;8.80;;;15.30;55.70;16.30;101578.00;;;;5029510;28;20884;-44
2023/03/04 03:29:29;;;;;;;9.87;8.97;;;15.30;55.80;16.30;101571.00;;;;5029268;28;20210;-45
2023/03/04 03:31:55;;;;;;;10.10;9.20;;;15.30;55.70;16.20;101576.00;;;;5029333;28;20171;-43
2023/03/04 03:34:21;;;;;;;9.87;8.97;;;15.30;55.70;16.20;101572.00;;;;5029320;28;20225;-44
2023/03/04 03:36:47;;;;;;;9.77;8.87;;;15.30;55.80;16.20;101569.00;;;;5029591;28;20219;-45
2023/03/04 03:39:14;;;;;;;10.23;9.33;;;15.30;55.70;16.20;101561.00;;;;5029114;28;20175;-45
2023/03/04 03:41:40;;;;;;;10.13;9.23;;;15.30;55.70;16.20;101566.00;;;;5028960;28;20189;-45
2023/03/04 03:44:06;;;;;;;9.50;8.70;;;15.20;55.70;16.20;101571.00;;;;5029533;28;20239;-45
2023/03/04 03:46:32;;;;;;;9.60;8.70;;;15.20;55.80;16.20;101576.00;;;;5029091;28;20693;-44
2023/03/04 03:48:57;;;;;;;9.57;8.67;;;15.20;55.80;16.20;101570.00;;;;5028934;28;20301;-44
2023/03/04 03:51:23;;;;;;;9.67;8.87;;;15.20;55.80;16.10;101570.00;;;;5028543;28;20239;-44
2023/03/04 03:53:49;;;;;;;9.00;8.20;;;15.20;55.80;16.20;101569.00;;;;5028794;28;20190;-44
2023/03/04 03:56:14;;;;;;;9.17;8.37;;;15.20;55.80;16.10;101567.00;;;;5029109;28;20673;-45
2023/03/04 03:58:40;;;;;;;9.20;8.40;;;15.20;55.80;16.10;101579.00;;;;5029111;28;20194;-45
2023/03/04 04:01:06;;;;;;;9.53;8.70;;;15.20;55.80;16.10;101563.00;;;;5029088;28;20183;-45
2023/03/04 04:03:32;;;;;;;9.90;9.00;;;15.10;55.80;16.10;101564.00;;;;5029233;28;20190;-44
2023/03/04 04:05:57;;;;;;;9.93;9.03;;;15.10;55.70;16.10;101560.00;;;;5028842;28;20202;-45
2023/03/04 04:08:23;;;;;;;9.13;8.33;;;15.10;55.70;16.10;101561.00;;;;5028452;28;20215;-45
2023/03/04 04:10:49;;;;;;;9.40;8.60;;;15.10;55.80;16.10;101561.00;;;;5028504;28;20191;-46
2023/03/04 04:13:14;;;;;;;9.30;8.50;;;15.10;55.70;16.10;101562.00;;;;5028796;28;20329;-44
2023/03/04 04:15:40;;;;;;;9.30;8.50;;;15.10;55.70;16.10;101565.00;;;;5028600;28;20337;-44
2023/03/04 04:18:06;;;;;;;9.57;8.77;;;15.00;55.80;16.10;101570.00;;;;5028613;28;20187;-44
2023/03/04 04:20:32;;;;;;;10.00;9.10;;;15.10;55.80;16.00;101525.00;;;;5028125;28;20741;-45
2023/03/04 04:22:58;;;;;;;10.10;9.20;;;15.10;55.90;16.00;101573.00;;;;5028461;28;20221;-44
2023/03/04 04:25:24;;;;;;;9.77;8.90;;;15.10;55.80;16.10;101568.00;;;;5028363;28;20268;-44
2023/03/04 04:27:49;;;;;;;9.80;8.80;;;15.00;55.80;16.00;101568.00;;;;5028256;28;20215;-45
2023/03/04 04:30:15;;;;;;;9.63;8.63;;;15.00;56.10;16.00;101555.00;;;;5028229;28;20178;-45
2023/03/04 04:32:41;;;;;;;11.27;8.13;;;15.00;56.10;16.00;101559.00;;;;5028055;28;20282;-44
2023/03/04 04:35:07;;;;;;;11.10;8.17;;;15.00;56.70;16.00;101549.00;;;;5028298;28;20187;-44
2023/03/04 04:37:33;;;;;;;12.17;8.60;;;14.90;56.80;16.00;101558.00;;;;5010549;28;20174;-44
2023/03/04 04:39:59;;;;;;;9.23;8.33;;;14.90;56.40;16.00;101560.00;;;;5028496;28;20671;-44
2023/03/04 04:42:24;;;;;;;10.23;8.20;;;15.00;56.40;16.00;101565.00;;;;5026855;28;20201;-44
2023/03/04 04:44:51;;;;;;;9.30;8.50;;;15.00;56.50;16.00;101557.00;;;;5027541;28;20178;-45
2023/03/04 04:47:17;;;;;;;9.90;9.00;;;15.00;56.40;16.00;101557.00;;;;5028425;28;20261;-51
2023/03/04 04:49:43;;;;;;;10.67;9.67;;;15.00;56.10;16.00;101563.00;;;;5027976;28;20175;-44
2023/03/04 04:52:08;;;;;;;10.47;9.37;;;15.00;56.00;16.00;101554.00;;;;5030888;28;20547;-45
2023/03/04 04:54:34;;;;;;;10.43;9.53;;;15.00;55.90;15.90;101554.00;;;;5037115;28;20186;-45
2023/03/04 04:57:00;;;;;;;11.60;10.23;;;15.00;55.80;15.90;101557.00;;;;5039655;28;20204;-44
2023/03/04 04:59:25;;;;;;;12.23;11.03;;;15.00;55.70;15.80;101554.00;;;;5037441;28;20178;-45
2023/03/04 05:01:51;;;;;;;11.20;10.10;;;15.00;55.50;15.90;101555.00;;;;5041622;28;20193;-44
2023/03/04 05:04:17;;;;;;;12.57;11.10;;;15.00;55.40;15.90;101549.00;;;;5038485;28;20673;-44
2023/03/04 05:06:43;;;;;;;13.33;11.60;;;15.00;55.30;15.90;101565.00;;;;5035460;28;20201;-44
2023/03/04 05:09:08;;;;;;;12.67;11.47;;;15.00;55.30;15.90;101550.00;;;;5033349;28;20171;-45
2023/03/04 05:11:34;;;;;;;13.53;12.10;;;14.90;55.10;15.90;101554.00;;;;5042999;28;20178;-45
2023/03/04 05:14:00;;;;;;;13.30;11.90;;;14.90;55.00;15.90;101563.00;;;;5034708;28;20203;-44
2023/03/04 05:16:25;;;;;;;13.10;11.80;;;14.90;55.00;15.90;101558.00;;;;5034301;28;20289;-44
2023/03/04 05:18:51;;;;;;;13.40;12.10;;;14.90;54.90;15.80;101563.00;;;;5034454;28;20175;-44
2023/03/04 05:21:17;;;;;;;13.30;11.90;;;14.90;54.90;15.80;101563.00;;;;5034348;28;20603;-44
2023/03/04 05:23:43;;;;;;;14.17;12.77;;;14.90;54.70;15.80;101556.00;;;;5034220;28;20213;-44
2023/03/04 05:26:11;;;;;;;14.50;12.53;;;14.90;54.60;15.80;101554.00;;;;5034108;28;20581;-45
2023/03/04 05:28:37;;;;;;;14.80;13.30;;;14.90;54.70;15.80;101564.00;;;;5024499;28;20610;-44
2023/03/04 05:31:03;;;;;;;14.57;13.07;;;14.90;54.60;15.80;101566.00;;;;5030258;28;20187;-44
2023/03/04 05:33:29;;;;;;;14.70;12.70;;;14.90;54.60;15.80;101564.00;;;;5035249;28;20182;-45
2023/03/04 05:35:55;;;;;;;13.67;12.27;;;14.80;54.60;15.80;101555.00;;;;5035393;28;20264;-44
2023/03/04 05:38:21;;;;;;;13.93;12.20;;;14.80;54.60;15.70;101556.00;;;;5035095;28;20186;-45
2023/03/04 05:40:47;;;;;;;14.97;12.00;;;14.80;54.60;15.80;101559.00;;;;5035210;28;20183;-45
2023/03/04 05:43:13;;;;;;;18.40;13.60;;;14.80;54.60;15.70;101573.00;;;;5035045;28;20183;-44
2023/03/04 05:45:39;;;;;;;13.40;12.10;;;14.80;54.60;15.70;101555.00;;;;5027237;28;20211;-44
2023/03/04 05:48:05;;;;;;;16.20;12.47;;;14.80;54.60;15.70;101560.00;;;;5035308;28;20677;-44
2023/03/04 05:50:31;;;;;;;13.23;11.83;;;14.80;55.00;15.70;101577.00;;;;5034887;28;20187;-44
2023/03/04 05:52:57;;;;;;;13.57;12.27;;;14.80;54.90;15.70;101573.00;;;;5035452;28;20200;-44
2023/03/04 05:55:22;;;;;;;12.63;11.30;;;14.80;54.90;15.70;101565.00;;;;5035160;28;20206;-45
2023/03/04 05:57:48;;;;;;;12.40;11.03;;;14.80;54.90;15.70;101572.00;;;;5034395;28;20230;-44
2023/03/04 06:00:14;;;;;;;12.87;11.60;;;14.80;54.90;15.70;101569.00;;;;5034970;28;20268;-44
2023/03/04 06:02:40;;;;;;;17.63;11.43;;;14.70;54.80;15.70;101562.00;;;;5034930;28;20187;-44
2023/03/04 06:05:07;;;;;;;12.10;10.60;;;14.80;55.00;15.70;101561.00;;;;5034038;28;20181;-44
2023/03/04 06:07:33;;;;;;;13.77;10.97;;;14.70;55.00;15.70;101580.00;;;;5031848;28;20542;-44
2023/03/04 06:09:58;;;;;;;16.03;10.83;;;14.80;55.30;15.70;101573.00;;;;5031614;28;20181;-44
2023/03/04 06:12:24;;;;;;;12.03;10.40;;;14.80;55.30;15.70;101580.00;;;;5031596;28;20175;-45
2023/03/04 06:14:50;;;;;;;14.50;11.23;;;14.70;55.20;15.60;101584.00;;;;5032217;28;20178;-44
2023/03/04 06:17:16;;;;;;;13.00;11.23;;;14.70;55.20;15.60;101567.00;;;;5031907;28;20205;-43
2023/03/04 06:19:41;;;;;;;13.83;11.33;;;14.70;55.10;15.60;101573.00;;;;5031397;28;20183;-44
2023/03/04 06:22:08;;;;;;;13.40;10.43;;;14.70;55.20;15.60;101556.00;;;;5030827;28;20202;-44
2023/03/04 06:24:33;;;;;;;12.87;9.83;;;14.70;55.30;15.60;101583.00;;;;5030668;28;20178;-43
2023/03/04 06:26:59;;;;;;;13.10;10.87;;;14.70;55.30;15.60;101579.00;;;;5031257;28;20206;-44
2023/03/04 06:29:25;;;;;;;12.17;10.70;;;14.60;55.30;15.60;101587.00;;;;5029194;28;20175;-44
2023/03/04 06:31:51;;;;;;;12.20;10.17;;;14.60;55.40;15.60;101583.00;;;;5036545;28;20230;-44
2023/03/04 06:34:16;;;;;;;12.80;10.77;;;14.60;55.30;15.50;101589.00;;;;5031081;28;20186;-44
2023/03/04 06:36:42;;;;;;;11.33;10.23;;;14.60;55.20;15.50;101591.00;;;;5030859;28;20217;-44
2023/03/04 06:39:08;;;;;;;11.27;10.00;;;14.70;55.30;15.50;101594.00;;;;5030556;28;20186;-44
2023/03/04 06:41:34;;;;;;;11.13;9.97;;;14.60;55.20;15.50;101595.00;;;;5031245;28;20194;-44
2023/03/04 06:44:00;;;;;;;11.37;10.13;;;14.70;55.30;15.50;101600.00;;;;5030571;28;20191;-45
2023/03/04 06:46:26;;;;;;;11.20;9.77;;;14.60;55.20;15.50;101608.00;;;;5030680;28;20211;-45
2023/03/04 06:48:51;;;;;;;10.03;9.10;;;14.60;55.20;15.50;101604.00;;;;5030421;28;20263;-43
2023/03/04 06:51:17;;;;;;;11.67;9.63;;;14.60;55.20;15.50;101607.00;;;;5030328;28;20175;-43
2023/03/04 06:53:43;;;;;;;10.47;9.47;;;14.60;55.20;15.50;101608.00;;;;5030625;28;20211;-44
2023/03/04 06:56:10;;;;;;;10.83;9.57;;;14.60;55.20;15.50;101607.00;;;;5029396;28;20761;-44
2023/03/04 06:58:36;;;;;;;10.10;9.10;;;14.60;55.20;15.50;101604.00;;;;5029384;28;20179;-44
2023/03/04 07:01:16;;;;;;;9.97;8.73;;;14.60;55.20;15.50;101615.00;;;;5030597;28;20210;-44
2023/03/04 07:03:43;;;;;;;10.40;8.90;;;14.60;55.20;15.40;101598.00;;;;5030464;28;20220;-44
2023/03/04 07:06:13;;;;;;;10.43;9.43;;;14.60;55.20;15.40;101620.00;;;;5030369;28;20225;-43
2023/03/04 07:08:39;;;;;;;10.47;9.17;;;14.60;55.30;15.40;101612.00;;;;5028462;28;20202;-44
2023/03/04 07:11:05;;;;;;;9.10;8.17;;;14.60;55.20;15.40;101605.00;;;;5030097;28;20175;-43
2023/03/04 07:13:33;;;;;;;10.00;9.10;;;14.60;55.20;15.40;101614.00;;;;5030186;28;20179;-45
2023/03/04 07:15:59;;;;;;;9.83;8.90;;;14.50;55.10;15.40;101617.00;;;;5030257;28;20261;-44
2023/03/04 07:18:25;;;;;;;9.40;8.47;;;14.50;55.10;15.40;101608.00;;;;5028992;28;20719;-43
2023/03/04 07:20:53;;;;;;;8.97;8.07;;;14.50;55.10;15.40;101599.00;;;;5029936;28;20262;-44
2023/03/04 07:23:19;;;;;;;9.17;8.37;;;14.50;55.10;15.40;101606.00;;;;5029992;28;20218;-44
2023/03/04 07:25:45;;;;;;;9.43;8.53;;;14.50;55.10;15.40;101621.00;;;;5030103;28;20704;-43
2023/03/04 07:28:11;;;;;;;9.63;8.73;;;14.60;55.30;15.40;101621.00;;;;5029476;28;20202;-43
2023/03/04 07:30:37;;;;;;;9.00;8.17;;;14.50;55.20;15.40;101619.00;;;;5028259;28;20858;-45
2023/03/04 07:33:02;;;;;;;9.60;8.70;;;14.50;55.20;15.40;101622.00;;;;5030003;28;20715;-44
2023/03/04 07:35:28;;;;;;;8.90;8.10;;;14.50;55.20;15.40;101630.00;;;;5021493;28;20677;-44
2023/03/04 07:37:54;;;;;;;8.17;7.47;;;14.50;55.20;15.40;101631.00;;;;5030040;28;20190;-46
2023/03/04 07:40:19;;;;;;;8.63;7.83;;;14.50;55.30;15.30;101623.00;;;;5031433;28;20641;-43
2023/03/04 07:42:52;;;;;;;8.30;7.50;;;14.50;55.30;15.30;101626.00;;;;5027094;28;20206;-44
2023/03/04 07:45:18;;;;;;;7.80;7.00;;;14.50;55.30;15.30;101627.00;;;;5031240;28;20203;-44
2023/03/04 07:47:44;;;;;;;9.10;8.20;;;14.50;55.30;15.30;101630.00;;;;5029722;28;20202;-44
2023/03/04 07:50:10;;;;;;;8.53;7.73;;;14.50;55.30;15.30;101632.00;;;;5029201;28;20697;-45
2023/03/04 07:52:41;;;;;;;8.10;7.30;;;14.50;55.30;15.30;101635.00;;;;5029350;28;20887;-43
2023/03/04 07:55:08;;;;;;;8.67;7.87;;;14.50;55.30;15.30;101636.00;;;;5029318;28;20549;-44
2023/03/04 07:57:34;;;;;;;8.80;7.90;;;14.40;55.30;15.30;101633.00;;;;5029103;28;20641;-44
2023/03/04 08:00:00;;;;;;;8.23;7.53;;;14.40;55.30;15.30;101635.00;;;;5029294;28;20179;-44
2023/03/04 08:02:25;;;;;;;8.30;7.50;;;14.30;55.50;15.30;101616.00;;;;5029067;28;20225;-44
2023/03/04 08:04:51;;;;;;;8.33;7.53;;;14.30;55.60;15.30;101631.00;;;;5028214;28;20638;-44
2023/03/04 08:07:17;;;;;;;8.20;7.40;;;14.30;55.60;15.30;101621.00;;;;5029223;28;20206;-44
2023/03/04 08:09:43;;;;;;;8.13;7.40;;;14.30;55.50;15.30;101634.00;;;;5029408;28;20191;-44
2023/03/04 08:12:08;;;;;;;8.43;7.63;;;14.30;55.50;15.20;101628.00;;;;5028830;28;20182;-43
2023/03/04 08:14:34;;;;;;;7.50;6.80;;;14.40;55.50;15.20;101633.00;;;;5028819;28;20179;-44
2023/03/04 08:17:00;;;;;;;8.47;7.67;;;14.30;55.40;15.20;101624.00;;;;5029155;28;20228;-44
2023/03/04 08:19:26;;;;;;;8.53;6.80;;;14.40;55.50;15.20;101620.00;;;;5028336;28;20179;-44
2023/03/04 08:21:51;;;;;;;7.60;6.90;;;14.40;55.50;15.20;101630.00;;;;5029047;28;20183;-45
2023/03/04 08:24:17;;;;;;;8.00;7.20;;;14.30;55.40;15.20;101630.00;;;;5028928;28;20559;-43
2023/03/04 08:26:45;;;;;;;7.10;6.50;;;14.30;55.40;15.20;101633.00;;;;5028477;28;20237;-44
2023/03/04 08:29:17;;;;;;;7.90;7.13;;;14.40;55.50;15.20;101627.00;;;;5027887;28;20206;-43
2023/03/04 08:31:46;;;;;;;7.47;6.77;;;14.30;55.40;15.20;101632.00;;;;5028833;28;20653;-45
2023/03/04 08:34:13;;;;;;;7.80;7.10;;;14.30;55.40;15.20;101636.00;;;;5028621;28;20237;-44
2023/03/04 08:36:42;;;;;;;7.53;6.80;;;14.30;55.40;15.20;101622.00;;;;5028450;28;20712;-44
2023/03/04 08:39:08;;;;;;;7.07;6.47;;;14.30;55.40;15.20;101644.00;;;;5027053;28;20215;-43
2023/03/04 08:41:34;;;;;;;8.07;7.10;;;14.30;55.50;15.20;101645.00;;;;5027123;28;20191;-44
2023/03/04 08:44:00;;;;;;;7.37;6.67;;;14.30;55.40;15.20;101647.00;;;;5029047;28;20254;-44
2023/03/04 08:46:26;;;;;;;6.60;6.00;;;14.30;55.40;15.20;101647.00;;;;5028798;28;20286;-44
2023/03/04 08:48:52;;;;;;;6.53;6.03;;;14.30;55.40;15.20;101648.00;;;;5028597;28;20203;-43
2023/03/04 08:51:18;;;;;;;7.40;6.70;;;14.30;55.50;15.20;101653.00;;;;5028434;28;20178;-44
2023/03/04 08:53:43;;;;;;;7.53;6.83;;;14.30;55.40;15.20;101650.00;;;;5028743;28;20189;-44
2023/03/04 08:56:09;;;;;;;6.80;6.20;;;14.30;55.40;15.20;101643.00;;;;5027411;28;20205;-44
2023/03/04 08:58:35;;;;;;;6.90;6.13;;;14.30;55.40;15.20;101646.00;;;;5028313;28;20700;-44
2023/03/04 09:01:01;;;;;;;7.23;6.60;;;14.20;55.40;15.20;101639.00;;;;5028619;28;20189;-43
2023/03/04 09:03:27;;;;;;;6.43;5.83;;;14.30;55.50;15.10;101635.00;;;;5028710;28;20584;-44
2023/03/04 09:05:53;;;;;;;6.33;5.73;;;14.20;55.40;15.10;101633.00;;;;5030875;28;20249;-44
2023/03/04 09:08:18;;;;;;;6.77;6.07;;;14.30;55.60;15.20;101638.00;;;;5033246;28;20214;-44
2023/03/04 09:10:45;;;;;;;6.40;5.80;;;14.20;55.50;15.10;101643.00;;;;5033141;28;20185;-43
2023/03/04 09:13:12;;;;;;;6.67;6.07;;;14.20;55.50;15.10;101637.00;;;;5028781;28;20187;-43
2023/03/04 09:15:44;;;;;;;6.50;5.90;;;14.20;55.50;15.10;101637.00;;;;5028652;28;20206;-43
2023/03/04 09:18:10;;;;;;;6.07;5.57;;;14.20;55.50;15.10;101639.00;;;;5027312;28;20190;-44
2023/03/04 09:20:36;;;;;;;6.40;5.90;;;14.20;55.50;15.10;101636.00;;;;5029482;28;20174;-44
2023/03/04 09:23:01;;;;;;;6.40;5.80;;;14.20;55.50;15.10;101639.00;;;;5030064;28;20197;-44
2023/03/04 09:25:27;;;;;;;6.90;6.23;;;14.20;55.70;15.10;101638.00;;;;5028948;28;20207;-44
2023/03/04 09:27:53;;;;;;;6.10;5.60;;;14.20;56.10;15.10;101641.00;;;;5028148;28;20286;-44
2023/03/04 09:30:19;;;;;;;7.23;6.10;;;14.10;56.30;15.10;101636.00;;;;5026536;28;20691;-44
2023/03/04 09:32:45;;;;;;;8.53;5.60;;;14.10;56.20;15.10;101648.00;;;;5028464;28;20179;-44
2023/03/04 09:35:10;;;;;;;9.30;5.73;;;14.10;57.00;15.10;101649.00;;;;5028231;28;20175;-43
2023/03/04 09:37:36;;;;;;;7.40;5.60;;;14.10;56.60;15.10;101642.00;;;;5028662;28;20198;-44
2023/03/04 09:40:03;;;;;;;9.67;5.87;;;14.10;56.60;15.10;101645.00;;;;5027750;28;20241;-44
2023/03/04 09:42:37;;;;;;;9.43;5.63;;;14.10;56.70;15.10;101640.00;;;;5032157;28;20232;-44
2023/03/04 09:45:04;;;;;;;6.40;5.80;;;14.10;56.60;15.10;101640.00;;;;5014750;28;20178;-43
2023/03/04 09:47:30;;;;;;;8.70;5.77;;;14.10;56.50;15.10;101638.00;;;;5015287;28;20209;-44
2023/03/04 09:50:02;;;;;;;7.37;5.77;;;14.10;56.40;15.10;101634.00;;;;5029321;28;20179;-44
2023/03/04 09:53:15;;;;;;;9.20;5.33;;;14.10;56.40;15.10;101637.00;;;;5031044;28;20182;-44
2023/03/04 09:55:43;;;;;;;7.90;5.70;;;14.10;56.30;15.10;101630.00;;;;5030523;28;20219;-44
2023/03/04 09:58:31;;;;;;;6.17;5.57;;;14.10;56.80;15.10;101637.00;;;;5031902;28;20182;-44
2023/03/04 10:01:06;;;;;;;6.67;5.67;;;14.10;56.70;15.10;101639.00;;;;5031435;28;20190;-43
2023/03/04 10:04:00;;;;;;;6.93;5.10;;;14.00;56.60;15.10;101636.00;;;;5028848;28;20186;-44
2023/03/04 10:06:26;;;;;;;6.90;5.47;;;14.10;56.70;15.00;101635.00;;;;5026461;28;20218;-44
2023/03/04 10:09:01;;;;;;;8.90;5.30;;;14.10;56.60;15.00;101632.00;;;;5029648;28;20214;-43
2023/03/04 10:11:39;;;;;;;9.93;5.80;;;14.00;56.80;15.00;101637.00;;;;5030038;28;20178;-43
2023/03/04 10:14:19;;;;;;;8.60;5.70;;;14.00;57.10;15.00;101639.00;;;;5030329;28;20179;-43
2023/03/04 10:17:07;;;;;;;6.40;5.10;;;14.00;57.50;15.00;101641.00;;;;5031293;28;20237;-43
2023/03/04 10:19:53;;;;;;;6.70;5.03;;;14.00;57.50;15.00;101632.00;;;;5029515;28;20230;-44
2023/03/04 10:22:36;;;;;;;9.03;5.10;;;14.00;57.60;15.00;101640.00;;;;5030090;28;20195;-45
2023/03/04 10:25:24;;;;;;;9.17;5.10;;;14.00;57.90;15.00;101635.00;;;;5032389;28;20187;-44
2023/03/04 10:28:03;;;;;;;16.20;5.80;;;14.00;58.00;15.00;101639.00;;;;5031103;28;20207;-43
2023/03/04 10:30:52;;;;;;;12.23;5.83;;;14.00;58.20;15.00;101629.00;;;;5030783;28;20241;-43
2023/03/04 10:33:29;;;;;;;11.57;5.27;;;14.00;58.20;15.00;101635.00;;;;5030564;28;20597;-44
2023/03/04 10:36:00;;;;;;;9.33;5.53;;;14.00;58.40;15.00;101612.00;;;;5031629;28;20694;-44
2023/03/04 10:38:34;;;;;;;8.00;5.17;;;14.00;58.20;15.00;101622.00;;;;5030756;28;20664;-44
2023/03/04 10:41:00;;;;;;;8.83;5.20;;;14.00;58.30;15.00;101617.00;;;;5029793;28;20254;-45
2023/03/04 10:43:26;;;;;;;10.63;5.23;;;14.00;58.50;15.10;101619.00;;;;5029630;28;20824;-45